Terminal Aerodrome Forecast
Issued by NWS Louisville, KY

Home | Current Version | Previous Version | Text Only | Print | Product List | Glossary On
Versions: 1 2 3 4 5 6 7 8 9 10 11 12 13 14
000
FTUS43 KLMK 201000 AAB
TAFSDF
TAF AMD
KSDF 201025Z 2010/2112 VRB03KT 6SM BR VCSH SCT009 BKN015 OVC025
      TEMPO 2010/2012 5SM BR BKN009
     FM201500 04004KT P6SM BKN025
     FM201800 VRB04KT P6SM SCT025 BKN040=

USA.gov is the U.S. government's official web portal to all federal, state and local government web resources and services.